createdAt,value
2022-10-27T00:01:21.561Z,101413.44
2022-10-27T00:06:23.591Z,101410.53
2022-10-27T00:11:25.805Z,101421.72
2022-10-27T00:16:27.810Z,101428.56
2022-10-27T00:21:29.971Z,101426.06
2022-10-27T00:26:31.977Z,101423.63
2022-10-27T00:31:34.069Z,101428.06
2022-10-27T00:36:36.149Z,101432.03
2022-10-27T00:41:41.100Z,101434.03
2022-10-27T00:46:46.129Z,101430.81
2022-10-27T00:51:57.105Z,101437.22
2022-10-27T00:56:59.786Z,101438.69
2022-10-27T01:02:02.377Z,101445.34
2022-10-27T01:07:04.627Z,101444.88
2022-10-27T01:12:06.807Z,101439.34
2022-10-27T01:17:28.035Z,101442.41
2022-10-27T01:22:44.227Z,101458.19
2022-10-27T01:27:52.426Z,101458.19
2022-10-27T01:33:18.846Z,101459.09
2022-10-27T01:38:27.224Z,101472.34
2022-10-27T01:43:31.492Z,101458.78
2022-10-27T01:48:35.769Z,101474.81
2022-10-27T01:53:44.228Z,101459.88
2022-10-27T01:59:01.522Z,101468.69
2022-10-27T02:04:29.109Z,101471.91
2022-10-27T02:09:44.202Z,101479.25
2022-10-27T02:14:51.321Z,101480.47
2022-10-27T02:19:57.019Z,101489.12
2022-10-27T02:24:59.269Z,101484.97
2022-10-27T02:30:03.368Z,101490.44
2022-10-27T02:35:08.326Z,101486.59
2022-10-27T02:40:11.115Z,101485.66
2022-10-27T02:45:13.246Z,101490.87
2022-10-27T02:50:15.310Z,101490.44
2022-10-27T02:55:17.418Z,101493.28
2022-10-27T03:00:19.557Z,101491.44
2022-10-27T03:05:21.569Z,101503.47
2022-10-27T03:10:23.860Z,101501.28
2022-10-27T03:15:25.882Z,101501.19
2022-10-27T03:20:28.175Z,101499.09
2022-10-27T03:25:30.177Z,101492.03
2022-10-27T03:30:32.205Z,101513.56
2022-10-27T03:35:34.270Z,101509.44
2022-10-27T03:40:36.271Z,101518.81
2022-10-27T03:45:38.293Z,101513.62
2022-10-27T03:50:40.467Z,101516.66
2022-10-27T03:55:42.799Z,101528.22
2022-10-27T04:00:46.023Z,101512.50
2022-10-27T04:05:51.130Z,101516.09
2022-10-27T04:10:53.426Z,101524.63
2022-10-27T04:15:56.442Z,101511.59
2022-10-27T04:21:03.136Z,101526.25
2022-10-27T04:26:05.353Z,101530.72
2022-10-27T04:31:07.417Z,101537.38
2022-10-27T04:36:09.621Z,101544.53
2022-10-27T04:41:11.714Z,101544.78
2022-10-27T04:46:13.790Z,101542.28
2022-10-27T04:51:19.259Z,101550.03
2022-10-27T04:56:24.328Z,101561.66
2022-10-27T05:01:26.450Z,101554.22
2022-10-27T05:06:28.731Z,101556.41
2022-10-27T05:11:30.811Z,101557.47
2022-10-27T05:16:32.812Z,101561.66
2022-10-27T05:21:34.873Z,101560.59
2022-10-27T05:26:38.047Z,101566.97
2022-10-27T05:31:40.327Z,101577.22
2022-10-27T05:36:43.880Z,101575.56
2022-10-27T05:41:46.026Z,101586.41
2022-10-27T05:46:48.042Z,101593.88
2022-10-27T05:51:50.910Z,101600.34
2022-10-27T05:56:52.910Z,101600.59
2022-10-27T06:01:54.980Z,101604.81
2022-10-27T06:06:57.134Z,101605.59
2022-10-27T06:11:59.292Z,101608.47
2022-10-27T06:17:01.325Z,101621.19
2022-10-27T06:22:03.408Z,101628.72
2022-10-27T06:27:05.479Z,101631.00
2022-10-27T06:32:07.509Z,101644.13
2022-10-27T06:37:09.536Z,101646.38
2022-10-27T06:42:11.581Z,101643.06
2022-10-27T06:47:13.779Z,101644.56
2022-10-27T06:52:15.788Z,101662.03
2022-10-27T06:57:18.042Z,101667.53
2022-10-27T07:02:20.269Z,101666.63
2022-10-27T07:07:22.345Z,101668.84
2022-10-27T07:12:25.216Z,101673.38
2022-10-27T07:17:27.248Z,101681.53
2022-10-27T07:22:29.227Z,101689.59
2022-10-27T07:27:31.283Z,101701.75
2022-10-27T07:32:33.304Z,101701.22
2022-10-27T07:37:35.363Z,101696.00
2022-10-27T07:42:48.938Z,101710.47
2022-10-27T07:47:56.936Z,101721.81
2022-10-27T07:53:00.295Z,101727.16
2022-10-27T07:58:11.005Z,101735.47
2022-10-27T08:03:25.548Z,101733.84
2022-10-27T08:08:27.637Z,101734.94
2022-10-27T08:13:29.712Z,101755.75
2022-10-27T08:18:31.725Z,101755.16
2022-10-27T08:23:33.766Z,101757.94
2022-10-27T08:28:35.864Z,101760.69
2022-10-27T08:33:37.866Z,101769.78
2022-10-27T08:38:39.945Z,101770.09
2022-10-27T08:43:52.524Z,101769.81
2022-10-27T08:48:58.590Z,101766.84
2022-10-27T08:54:01.141Z,101758.72
2022-10-27T08:59:04.071Z,101760.41
2022-10-27T09:04:12.341Z,101769.28
2022-10-27T09:09:58.926Z,101759.63
2022-10-27T09:15:07.156Z,101762.13
2022-10-27T09:20:19.653Z,101765.72
2022-10-27T09:25:23.367Z,101772.97
2022-10-27T09:35:34.478Z,101775.44
2022-10-27T09:40:37.105Z,101777.69
2022-10-27T09:45:41.061Z,101777.69
2022-10-27T09:51:20.164Z,101779.06
2022-10-27T09:56:27.980Z,101782.66
2022-10-27T10:01:49.019Z,101771.31
2022-10-27T10:06:59.090Z,101772.69
2022-10-27T10:12:23.874Z,101776.56
2022-10-27T10:17:28.078Z,101781.78
2022-10-27T10:22:43.154Z,101771.28
2022-10-27T10:27:55.387Z,101785.19
2022-10-27T10:32:57.904Z,101782.97
2022-10-27T10:38:04.981Z,101782.41
2022-10-27T10:43:17.461Z,101787.13
2022-10-27T10:48:42.058Z,101786.84
2022-10-27T10:53:51.264Z,101776.31
2022-10-27T10:58:59.120Z,101786.00
2022-10-27T11:04:01.302Z,101776.31
2022-10-27T11:09:04.484Z,101782.13
2022-10-27T11:14:13.095Z,101781.84
2022-10-27T11:19:16.420Z,101780.97
2022-10-27T11:24:23.070Z,101784.00
2022-10-27T11:29:51.164Z,101772.31
2022-10-27T11:35:04.846Z,101784.00
2022-10-27T11:40:07.108Z,101779.81
2022-10-27T11:45:20.961Z,101768.91
2022-10-27T11:50:40.100Z,101762.28
2022-10-27T11:55:59.608Z,101761.50
2022-10-27T12:01:10.445Z,101763.78
2022-10-27T12:06:30.805Z,101755.66
2022-10-27T12:17:03.959Z,101744.78
2022-10-27T12:22:14.097Z,101738.47
2022-10-27T12:27:22.467Z,101740.91
2022-10-27T12:32:28.552Z,101721.94
2022-10-27T12:37:41.613Z,101722.66
2022-10-27T12:42:52.084Z,101722.44
2022-10-27T12:48:48.191Z,101724.03
2022-10-27T12:54:23.649Z,101727.88
2022-10-27T12:59:29.756Z,101724.31
2022-10-27T13:04:53.543Z,101726.06
2022-10-27T13:10:14.002Z,101722.38
2022-10-27T13:15:44.343Z,101722.81
2022-10-27T13:20:53.424Z,101712.84
2022-10-27T13:26:13.891Z,101723.16
2022-10-27T13:31:22.274Z,101722.94
2022-10-27T13:36:24.561Z,101724.94
2022-10-27T13:42:04.209Z,101730.75
2022-10-27T13:47:16.268Z,101740.25
2022-10-27T13:52:39.651Z,101743.84
2022-10-27T13:58:17.941Z,101738.87
2022-10-27T14:03:43.654Z,101741.38
2022-10-27T14:08:45.633Z,101739.41
2022-10-27T14:13:50.620Z,101742.22
2022-10-27T14:19:18.522Z,101746.94
2022-10-27T14:24:29.140Z,101740.53
2022-10-27T14:29:34.853Z,101741.38
2022-10-27T14:34:41.606Z,101752.44
2022-10-27T14:39:56.698Z,101743.88
2022-10-27T14:45:15.799Z,101743.03
2022-10-27T14:50:51.749Z,101737.19
2022-10-27T14:56:16.261Z,101739.97
2022-10-27T15:01:27.363Z,101744.38
2022-10-27T15:06:37.507Z,101752.41
2022-10-27T15:11:40.205Z,101748.22
2022-10-27T15:16:46.372Z,101743.50
2022-10-27T15:21:53.814Z,101747.09
2022-10-27T15:26:56.282Z,101743.50
2022-10-27T15:31:59.697Z,101754.00
2022-10-27T15:37:23.865Z,101746.25
2022-10-27T15:42:29.380Z,101747.88
2022-10-27T15:47:41.915Z,101749.81
2022-10-27T15:52:43.971Z,101750.88
2022-10-27T15:57:46.726Z,101754.72
2022-10-27T16:02:52.974Z,101752.50
2022-10-27T16:07:55.538Z,101769.13
2022-10-27T16:12:57.617Z,101751.66
2022-10-27T16:18:00.394Z,101761.59
2022-10-27T16:23:02.701Z,101764.66
2022-10-27T16:28:13.967Z,101766.53
2022-10-27T16:33:18.567Z,101766.53
2022-10-27T16:38:20.612Z,101761.28
2022-10-27T16:43:31.765Z,101780.41
2022-10-27T16:48:37.017Z,101775.97
2022-10-27T16:53:40.096Z,101782.63
2022-10-27T16:58:44.049Z,101784.56
2022-10-27T17:03:47.078Z,101785.66
2022-10-27T17:08:49.167Z,101778.75
2022-10-27T17:13:52.644Z,101780.44
2022-10-27T17:18:54.654Z,101784.56
2022-10-27T17:23:56.952Z,101781.25
2022-10-27T17:28:59.790Z,101796.47
2022-10-27T17:34:02.397Z,101795.09
2022-10-27T17:39:04.871Z,101771.50
2022-10-27T17:44:06.910Z,101793.69
2022-10-27T17:49:09.106Z,101797.88
2022-10-27T17:54:13.073Z,101805.63
2022-10-27T17:59:16.437Z,101799.25
2022-10-27T18:04:18.470Z,101805.63
2022-10-27T18:09:21.326Z,101800.06
2022-10-27T18:14:24.273Z,101808.38
2022-10-27T18:19:26.659Z,101805.88
2022-10-27T18:24:28.736Z,101804.50
2022-10-27T18:29:32.315Z,101812.47
2022-10-27T18:34:34.566Z,101813.25
2022-10-27T18:39:36.734Z,101808.56
2022-10-27T18:44:38.809Z,101801.88
2022-10-27T18:49:48.265Z,101806.31
2022-10-27T18:54:50.835Z,101803.03
2022-10-27T18:59:52.856Z,101817.97
2022-10-27T19:04:54.894Z,101807.41
2022-10-27T19:09:56.887Z,101812.44
2022-10-27T19:14:58.892Z,101808.25
2022-10-27T19:20:00.923Z,101808.25
2022-10-27T19:25:03.700Z,101817.09
2022-10-27T19:30:06.328Z,101812.41
2022-10-27T19:35:08.576Z,101814.84
2022-10-27T19:40:10.956Z,101825.12
2022-10-27T19:45:12.996Z,101821.25
2022-10-27T19:50:15.068Z,101824.84
2022-10-27T19:55:17.096Z,101830.37
2022-10-27T20:00:19.229Z,101845.34
2022-10-27T20:05:23.737Z,101839.50
2022-10-27T20:10:25.827Z,101844.75
2022-10-27T20:15:27.882Z,101838.66
2022-10-27T20:20:29.884Z,101848.06
2022-10-27T20:25:31.965Z,101842.19
2022-10-27T20:30:33.992Z,101841.31
2022-10-27T20:35:36.053Z,101838.56
2022-10-27T20:40:39.582Z,101846.31
2022-10-27T20:45:41.604Z,101842.72
2022-10-27T20:50:43.654Z,101832.44
2022-10-27T20:55:45.681Z,101840.50
2022-10-27T21:00:47.923Z,101838.81
2022-10-27T21:05:55.059Z,101843.53
2022-10-27T21:10:57.163Z,101841.31
2022-10-27T21:16:00.077Z,101838.53
2022-10-27T21:21:11.626Z,101848.22
2022-10-27T21:26:14.265Z,101844.34
2022-10-27T21:31:16.356Z,101839.66
2022-10-27T21:36:18.643Z,101839.34
2022-10-27T21:41:22.134Z,101841.00
2022-10-27T21:46:26.593Z,101842.94
2022-10-27T21:51:29.920Z,101849.31
2022-10-27T21:56:33.796Z,101847.63
2022-10-27T22:01:36.120Z,101854.28
2022-10-27T22:06:38.387Z,101855.12
2022-10-27T22:11:40.446Z,101857.81
2022-10-27T22:16:42.526Z,101852.25
2022-10-27T22:21:44.588Z,101858.31
2022-10-27T22:26:46.683Z,101854.97
2022-10-27T22:31:48.817Z,101864.59
2022-10-27T22:36:50.981Z,101867.34
2022-10-27T22:41:53.042Z,101859.34
2022-10-27T22:46:55.119Z,101859.28
2022-10-27T22:51:57.171Z,101865.09
2022-10-27T22:56:59.212Z,101841.47
2022-10-27T23:02:01.335Z,101860.06
2022-10-27T23:07:04.073Z,101863.09
2022-10-27T23:12:06.769Z,101858.94
2022-10-27T23:17:11.664Z,101856.97
2022-10-27T23:22:13.755Z,101865.75
2022-10-27T23:27:15.823Z,101863.19
2022-10-27T23:32:17.867Z,101866.72
2022-10-27T23:37:19.894Z,101864.53
2022-10-27T23:42:21.916Z,101859.53
2022-10-27T23:47:23.919Z,101865.62
2022-10-27T23:52:26.127Z,101873.59
2022-10-27T23:57:28.195Z,101867.22
